sensor_id;sensor_type;location;lat;lon;timestamp;pressure;altitude;pressure_sealevel;temperature;humidity
62928;BME280;51070;52.236;-0.892;2023-04-01T00:01:07;99009.70;;;9.91;99.02
62928;BME280;51070;52.236;-0.892;2023-04-01T00:03:33;99013.66;;;9.90;99.42
62928;BME280;51070;52.236;-0.892;2023-04-01T00:05:59;99018.33;;;9.91;99.25
62928;BME280;51070;52.236;-0.892;2023-04-01T00:08:26;99022.30;;;9.90;98.82
62928;BME280;51070;52.236;-0.892;2023-04-01T00:10:52;99019.16;;;9.89;98.67
62928;BME280;51070;52.236;-0.892;2023-04-01T00:13:19;99024.86;;;9.89;98.51
62928;BME280;51070;52.236;-0.892;2023-04-01T00:15:44;99023.48;;;9.88;98.48
62928;BME280;51070;52.236;-0.892;2023-04-01T00:18:11;99027.80;;;9.89;98.69
62928;BME280;51070;52.236;-0.892;2023-04-01T00:20:37;99027.96;;;9.88;98.27
62928;BME280;51070;52.236;-0.892;2023-04-01T00:23:02;99032.62;;;9.86;98.17
62928;BME280;51070;52.236;-0.892;2023-04-01T00:25:28;99036.90;;;9.84;98.17
62928;BME280;51070;52.236;-0.892;2023-04-01T00:27:53;99040.34;;;9.83;98.38
62928;BME280;51070;52.236;-0.892;2023-04-01T00:30:19;99039.31;;;9.81;98.55
62928;BME280;51070;52.236;-0.892;2023-04-01T00:32:45;99046.20;;;9.82;98.83
62928;BME280;51070;52.236;-0.892;2023-04-01T00:35:11;99050.19;;;9.83;98.87
62928;BME280;51070;52.236;-0.892;2023-04-01T00:37:38;99057.08;;;9.83;98.57
62928;BME280;51070;52.236;-0.892;2023-04-01T00:40:06;99054.85;;;9.84;98.97
62928;BME280;51070;52.236;-0.892;2023-04-01T00:42:32;99057.45;;;9.85;98.55
62928;BME280;51070;52.236;-0.892;2023-04-01T00:44:58;99057.27;;;9.85;98.61
62928;BME280;51070;52.236;-0.892;2023-04-01T00:47:25;99060.72;;;9.85;98.59
62928;BME280;51070;52.236;-0.892;2023-04-01T00:49:53;99060.20;;;9.85;98.79
62928;BME280;51070;52.236;-0.892;2023-04-01T00:52:24;99061.11;;;9.87;98.92
62928;BME280;51070;52.236;-0.892;2023-04-01T00:54:55;99067.98;;;9.86;98.19
62928;BME280;51070;52.236;-0.892;2023-04-01T00:57:31;99068.98;;;9.83;98.23
62928;BME280;51070;52.236;-0.892;2023-04-01T00:59:58;99074.14;;;9.80;98.06
62928;BME280;51070;52.236;-0.892;2023-04-01T01:02:24;99074.97;;;9.78;98.56
62928;BME280;51070;52.236;-0.892;2023-04-01T01:04:51;99078.77;;;9.78;98.62
62928;BME280;51070;52.236;-0.892;2023-04-01T01:12:34;99080.16;;;9.79;98.72
62928;BME280;51070;52.236;-0.892;2023-04-01T01:17:52;99088.48;;;9.83;99.00
62928;BME280;51070;52.236;-0.892;2023-04-01T01:31:24;99106.09;;;9.82;97.83
62928;BME280;51070;52.236;-0.892;2023-04-01T01:34:02;99112.58;;;9.78;97.92
62928;BME280;51070;52.236;-0.892;2023-04-01T01:36:33;99111.72;;;9.76;97.58
62928;BME280;51070;52.236;-0.892;2023-04-01T01:39:02;99114.95;;;9.73;97.17
62928;BME280;51070;52.236;-0.892;2023-04-01T01:41:28;99115.60;;;9.68;97.09
62928;BME280;51070;52.236;-0.892;2023-04-01T01:43:56;99118.68;;;9.65;96.86
62928;BME280;51070;52.236;-0.892;2023-04-01T01:46:26;99122.44;;;9.63;97.11
62928;BME280;51070;52.236;-0.892;2023-04-01T01:48:54;99132.63;;;9.63;97.23
62928;BME280;51070;52.236;-0.892;2023-04-01T01:51:22;99137.26;;;9.61;96.68
62928;BME280;51070;52.236;-0.892;2023-04-01T01:53:48;99138.27;;;9.58;96.41
62928;BME280;51070;52.236;-0.892;2023-04-01T01:56:13;99139.44;;;9.56;96.78
62928;BME280;51070;52.236;-0.892;2023-04-01T01:58:43;99141.33;;;9.54;96.46
62928;BME280;51070;52.236;-0.892;2023-04-01T02:01:13;99143.69;;;9.51;96.64
62928;BME280;51070;52.236;-0.892;2023-04-01T02:03:42;99150.95;;;9.52;96.75
62928;BME280;51070;52.236;-0.892;2023-04-01T02:06:10;99153.02;;;9.52;96.65
62928;BME280;51070;52.236;-0.892;2023-04-01T02:11:13;99158.85;;;9.51;97.04
62928;BME280;51070;52.236;-0.892;2023-04-01T02:13:50;99165.80;;;9.53;96.91
62928;BME280;51070;52.236;-0.892;2023-04-01T02:16:26;99169.91;;;9.52;96.99
62928;BME280;51070;52.236;-0.892;2023-04-01T02:18:53;99172.16;;;9.52;96.93
62928;BME280;51070;52.236;-0.892;2023-04-01T02:21:22;99177.97;;;9.47;97.26
62928;BME280;51070;52.236;-0.892;2023-04-01T02:23:49;99184.80;;;9.43;97.23
62928;BME280;51070;52.236;-0.892;2023-04-01T02:26:16;99187.52;;;9.39;97.14
62928;BME280;51070;52.236;-0.892;2023-04-01T02:28:43;99190.21;;;9.34;96.92
62928;BME280;51070;52.236;-0.892;2023-04-01T02:31:10;99191.36;;;9.29;96.71
62928;BME280;51070;52.236;-0.892;2023-04-01T02:33:38;99191.32;;;9.25;96.76
62928;BME280;51070;52.236;-0.892;2023-04-01T02:36:05;99194.23;;;9.25;96.59
62928;BME280;51070;52.236;-0.892;2023-04-01T02:38:31;99191.63;;;9.23;96.78
62928;BME280;51070;52.236;-0.892;2023-04-01T02:40:59;99194.05;;;9.23;96.57
62928;BME280;51070;52.236;-0.892;2023-04-01T02:43:26;99198.02;;;9.22;96.66
62928;BME280;51070;52.236;-0.892;2023-04-01T02:45:51;99199.56;;;9.22;96.69
62928;BME280;51070;52.236;-0.892;2023-04-01T02:48:17;99201.62;;;9.21;96.75
62928;BME280;51070;52.236;-0.892;2023-04-01T02:50:42;99203.13;;;9.19;96.74
62928;BME280;51070;52.236;-0.892;2023-04-01T02:53:08;99205.17;;;9.18;96.73
62928;BME280;51070;52.236;-0.892;2023-04-01T02:55:33;99203.96;;;9.16;96.70
62928;BME280;51070;52.236;-0.892;2023-04-01T02:57:59;99208.92;;;9.15;96.89
62928;BME280;51070;52.236;-0.892;2023-04-01T03:00:26;99208.02;;;9.13;97.19
62928;BME280;51070;52.236;-0.892;2023-04-01T03:02:52;99213.20;;;9.14;97.44
62928;BME280;51070;52.236;-0.892;2023-04-01T03:05:18;99212.73;;;9.16;97.86
62928;BME280;51070;52.236;-0.892;2023-04-01T03:07:43;99215.70;;;9.19;97.65
62928;BME280;51070;52.236;-0.892;2023-04-01T03:10:09;99217.44;;;9.20;97.59
62928;BME280;51070;52.236;-0.892;2023-04-01T03:12:35;99222.42;;;9.19;97.66
62928;BME280;51070;52.236;-0.892;2023-04-01T03:15:01;99226.38;;;9.18;97.88
62928;BME280;51070;52.236;-0.892;2023-04-01T03:17:26;99228.41;;;9.15;97.91
62928;BME280;51070;52.236;-0.892;2023-04-01T03:19:52;99229.92;;;9.13;97.77
62928;BME280;51070;52.236;-0.892;2023-04-01T03:22:17;99237.43;;;9.07;97.80
62928;BME280;51070;52.236;-0.892;2023-04-01T03:24:46;99236.70;;;9.05;98.25
62928;BME280;51070;52.236;-0.892;2023-04-01T03:27:11;99244.77;;;9.03;98.11
62928;BME280;51070;52.236;-0.892;2023-04-01T03:29:36;99246.26;;;8.99;97.80
62928;BME280;51070;52.236;-0.892;2023-04-01T03:32:02;99249.49;;;8.96;97.66
62928;BME280;51070;52.236;-0.892;2023-04-01T03:34:27;99250.98;;;8.92;97.21
62928;BME280;51070;52.236;-0.892;2023-04-01T03:36:52;99256.78;;;8.88;97.49
62928;BME280;51070;52.236;-0.892;2023-04-01T03:39:18;99253.30;;;8.86;97.60
62928;BME280;51070;52.236;-0.892;2023-04-01T03:41:44;99257.89;;;8.81;97.35
62928;BME280;51070;52.236;-0.892;2023-04-01T03:44:11;99256.59;;;8.75;97.44
62928;BME280;51070;52.236;-0.892;2023-04-01T03:46:36;99257.73;;;8.72;97.73
62928;BME280;51070;52.236;-0.892;2023-04-01T03:49:02;99256.49;;;8.70;97.95
62928;BME280;51070;52.236;-0.892;2023-04-01T03:51:28;99256.30;;;8.68;97.90
62928;BME280;51070;52.236;-0.892;2023-04-01T03:53:53;99264.39;;;8.68;97.77
62928;BME280;51070;52.236;-0.892;2023-04-01T03:56:19;99264.58;;;8.70;97.83
62928;BME280;51070;52.236;-0.892;2023-04-01T03:58:47;99264.38;;;8.68;97.50
62928;BME280;51070;52.236;-0.892;2023-04-01T04:01:20;99268.30;;;8.66;97.90
62928;BME280;51070;52.236;-0.892;2023-04-01T04:03:46;99271.06;;;8.66;98.14
62928;BME280;51070;52.236;-0.892;2023-04-01T04:06:14;99269.01;;;8.66;98.33
62928;BME280;51070;52.236;-0.892;2023-04-01T04:08:40;99273.80;;;8.65;98.08
62928;BME280;51070;52.236;-0.892;2023-04-01T04:11:05;99272.91;;;8.64;97.86
62928;BME280;51070;52.236;-0.892;2023-04-01T04:13:31;99278.62;;;8.65;98.31
62928;BME280;51070;52.236;-0.892;2023-04-01T04:15:56;99280.20;;;8.66;97.91
62928;BME280;51070;52.236;-0.892;2023-04-01T04:18:21;99280.90;;;8.67;97.96
62928;BME280;51070;52.236;-0.892;2023-04-01T04:20:47;99282.29;;;8.68;97.91
62928;BME280;51070;52.236;-0.892;2023-04-01T04:23:17;99282.66;;;8.68;98.04
62928;BME280;51070;52.236;-0.892;2023-04-01T04:25:57;99285.91;;;8.67;98.24
62928;BME280;51070;52.236;-0.892;2023-04-01T04:28:22;99292.59;;;8.66;97.93
62928;BME280;51070;52.236;-0.892;2023-04-01T04:30:48;99299.45;;;8.65;98.07
62928;BME280;51070;52.236;-0.892;2023-04-01T04:33:14;99302.00;;;8.62;98.18
62928;BME280;51070;52.236;-0.892;2023-04-01T04:35:40;99303.52;;;8.61;98.10
62928;BME280;51070;52.236;-0.892;2023-04-01T04:38:05;99305.73;;;8.59;97.77
62928;BME280;51070;52.236;-0.892;2023-04-01T04:40:31;99310.34;;;8.57;97.59
62928;BME280;51070;52.236;-0.892;2023-04-01T04:42:56;99310.46;;;8.54;97.64
62928;BME280;51070;52.236;-0.892;2023-04-01T04:45:22;99316.10;;;8.52;97.34
62928;BME280;51070;52.236;-0.892;2023-04-01T04:47:47;99321.38;;;8.49;97.46
62928;BME280;51070;52.236;-0.892;2023-04-01T04:50:12;99319.98;;;8.47;97.45
62928;BME280;51070;52.236;-0.892;2023-04-01T04:52:38;99323.61;;;8.47;97.57
62928;BME280;51070;52.236;-0.892;2023-04-01T04:55:04;99324.98;;;8.47;97.70
62928;BME280;51070;52.236;-0.892;2023-04-01T04:57:30;99329.59;;;8.45;97.67
62928;BME280;51070;52.236;-0.892;2023-04-01T04:59:55;99329.15;;;8.40;97.35
62928;BME280;51070;52.236;-0.892;2023-04-01T05:02:21;99337.01;;;8.37;97.46
62928;BME280;51070;52.236;-0.892;2023-04-01T05:04:46;99340.38;;;8.33;97.76
62928;BME280;51070;52.236;-0.892;2023-04-01T05:07:11;99343.27;;;8.32;98.08
62928;BME280;51070;52.236;-0.892;2023-04-01T05:09:37;99346.23;;;8.33;97.90
62928;BME280;51070;52.236;-0.892;2023-04-01T05:12:02;99353.67;;;8.35;98.35
62928;BME280;51070;52.236;-0.892;2023-04-01T05:14:28;99355.42;;;8.37;98.21
62928;BME280;51070;52.236;-0.892;2023-04-01T05:16:53;99354.38;;;8.36;97.53
62928;BME280;51070;52.236;-0.892;2023-04-01T05:19:19;99361.88;;;8.33;97.42
62928;BME280;51070;52.236;-0.892;2023-04-01T05:21:45;99362.73;;;8.32;97.55
62928;BME280;51070;52.236;-0.892;2023-04-01T05:24:11;99367.34;;;8.30;97.25
62928;BME280;51070;52.236;-0.892;2023-04-01T05:26:36;99373.09;;;8.27;97.28
62928;BME280;51070;52.236;-0.892;2023-04-01T05:29:03;99376.82;;;8.24;97.10
62928;BME280;51070;52.236;-0.892;2023-04-01T05:31:29;99383.49;;;8.22;97.13
62928;BME280;51070;52.236;-0.892;2023-04-01T05:33:55;99389.34;;;8.22;97.26
62928;BME280;51070;52.236;-0.892;2023-04-01T05:36:21;99391.05;;;8.21;97.30
62928;BME280;51070;52.236;-0.892;2023-04-01T05:38:46;99391.41;;;8.22;97.35
62928;BME280;51070;52.236;-0.892;2023-04-01T05:41:13;99392.96;;;8.23;97.14
62928;BME280;51070;52.236;-0.892;2023-04-01T05:43:40;99395.01;;;8.21;96.99
62928;BME280;51070;52.236;-0.892;2023-04-01T05:46:06;99394.64;;;8.20;96.95
62928;BME280;51070;52.236;-0.892;2023-04-01T05:48:33;99400.14;;;8.19;97.16
62928;BME280;51070;52.236;-0.892;2023-04-01T05:50:59;99400.16;;;8.20;97.28
62928;BME280;51070;52.236;-0.892;2023-04-01T05:53:25;99403.77;;;8.20;97.45
62928;BME280;51070;52.236;-0.892;2023-04-01T05:55:50;99410.48;;;8.20;97.46
62928;BME280;51070;52.236;-0.892;2023-04-01T05:58:16;99420.64;;;8.20;97.46
62928;BME280;51070;52.236;-0.892;2023-04-01T06:00:41;99417.73;;;8.22;97.54
62928;BME280;51070;52.236;-0.892;2023-04-01T06:03:07;99423.12;;;8.24;97.08
62928;BME280;51070;52.236;-0.892;2023-04-01T06:05:41;99423.30;;;8.24;97.08
62928;BME280;51070;52.236;-0.892;2023-04-01T06:08:16;99429.16;;;8.24;97.01
62928;BME280;51070;52.236;-0.892;2023-04-01T06:13:32;99432.25;;;8.25;97.10
62928;BME280;51070;52.236;-0.892;2023-04-01T06:35:05;99453.54;;;8.37;96.35
62928;BME280;51070;52.236;-0.892;2023-04-01T06:45:59;99471.02;;;8.40;96.25
62928;BME280;51070;52.236;-0.892;2023-04-01T06:54:14;99475.58;;;8.37;96.03
62928;BME280;51070;52.236;-0.892;2023-04-01T06:56:44;99479.45;;;8.41;96.40
62928;BME280;51070;52.236;-0.892;2023-04-01T06:59:19;99484.33;;;8.44;95.84
62928;BME280;51070;52.236;-0.892;2023-04-01T07:01:50;99485.21;;;8.45;95.56
62928;BME280;51070;52.236;-0.892;2023-04-01T07:04:21;99490.59;;;8.47;95.52
62928;BME280;51070;52.236;-0.892;2023-04-01T07:06:56;99491.64;;;8.48;95.40
62928;BME280;51070;52.236;-0.892;2023-04-01T07:09:37;99495.79;;;8.49;95.19
62928;BME280;51070;52.236;-0.892;2023-04-01T07:12:21;99500.77;;;8.48;95.09
62928;BME280;51070;52.236;-0.892;2023-04-01T07:14:50;99502.38;;;8.51;95.62
62928;BME280;51070;52.236;-0.892;2023-04-01T07:17:23;99507.74;;;8.52;95.22
62928;BME280;51070;52.236;-0.892;2023-04-01T07:20:21;99512.36;;;8.51;95.23
62928;BME280;51070;52.236;-0.892;2023-04-01T07:22:49;99513.78;;;8.52;95.35
62928;BME280;51070;52.236;-0.892;2023-04-01T07:27:58;99517.64;;;8.56;95.01
62928;BME280;51070;52.236;-0.892;2023-04-01T07:30:29;99514.06;;;8.57;95.09
62928;BME280;51070;52.236;-0.892;2023-04-01T07:33:09;99518.56;;;8.59;94.84
62928;BME280;51070;52.236;-0.892;2023-04-01T07:35:46;99520.14;;;8.60;94.65
62928;BME280;51070;52.236;-0.892;2023-04-01T07:41:13;99530.38;;;8.63;94.74
62928;BME280;51070;52.236;-0.892;2023-04-01T07:52:02;99547.92;;;8.71;93.90
62928;BME280;51070;52.236;-0.892;2023-04-01T08:02:28;99559.19;;;8.74;94.03
62928;BME280;51070;52.236;-0.892;2023-04-01T08:07:25;99565.76;;;8.75;93.75
62928;BME280;51070;52.236;-0.892;2023-04-01T08:12:38;99574.27;;;8.78;93.41
62928;BME280;51070;52.236;-0.892;2023-04-01T08:15:21;99576.53;;;8.80;93.61
62928;BME280;51070;52.236;-0.892;2023-04-01T08:20:44;99591.06;;;8.90;93.16
62928;BME280;51070;52.236;-0.892;2023-04-01T08:28:40;99606.70;;;8.97;92.21
62928;BME280;51070;52.236;-0.892;2023-04-01T08:31:14;99609.92;;;9.03;91.99
62928;BME280;51070;52.236;-0.892;2023-04-01T08:33:42;99614.98;;;9.06;91.48
62928;BME280;51070;52.236;-0.892;2023-04-01T08:52:20;99631.43;;;9.82;88.35
62928;BME280;51070;52.236;-0.892;2023-04-01T09:05:35;99649.23;;;10.32;86.40
62928;BME280;51070;52.236;-0.892;2023-04-01T09:08:28;99655.93;;;10.39;85.29
62928;BME280;51070;52.236;-0.892;2023-04-01T09:25:53;99662.49;;;11.52;81.31
62928;BME280;51070;52.236;-0.892;2023-04-01T09:28:53;99663.11;;;12.30;80.41
62928;BME280;51070;52.236;-0.892;2023-04-01T09:37:19;99672.33;;;13.91;72.72
62928;BME280;51070;52.236;-0.892;2023-04-01T09:40:09;99677.00;;;13.85;71.02
62928;BME280;51070;52.236;-0.892;2023-04-01T09:43:04;99676.86;;;13.40;70.08
62928;BME280;51070;52.236;-0.892;2023-04-01T09:48:19;99683.48;;;12.62;71.04
62928;BME280;51070;52.236;-0.892;2023-04-01T09:54:16;99695.66;;;12.26;71.75
62928;BME280;51070;52.236;-0.892;2023-04-01T10:05:17;99714.86;;;11.48;74.41
62928;BME280;51070;52.236;-0.892;2023-04-01T10:11:12;99724.41;;;11.37;74.30
62928;BME280;51070;52.236;-0.892;2023-04-01T10:39:55;99776.41;;;10.55;78.10
62928;BME280;51070;52.236;-0.892;2023-04-01T10:54:21;99795.81;;;10.58;78.81
62928;BME280;51070;52.236;-0.892;2023-04-01T10:56:59;99805.44;;;10.56;78.73
62928;BME280;51070;52.236;-0.892;2023-04-01T11:20:10;99821.80;;;10.63;77.40
62928;BME280;51070;52.236;-0.892;2023-04-01T11:25:56;99833.90;;;10.52;77.94
62928;BME280;51070;52.236;-0.892;2023-04-01T11:33:51;99844.01;;;10.39;77.88
62928;BME280;51070;52.236;-0.892;2023-04-01T11:41:56;99853.42;;;10.35;77.77
62928;BME280;51070;52.236;-0.892;2023-04-01T11:44:26;99860.39;;;10.38;78.02
62928;BME280;51070;52.236;-0.892;2023-04-01T11:47:12;99867.90;;;10.42;77.93
62928;BME280;51070;52.236;-0.892;2023-04-01T11:50:14;99872.14;;;10.46;77.59
62928;BME280;51070;52.236;-0.892;2023-04-01T12:06:30;99901.27;;;10.89;76.11
62928;BME280;51070;52.236;-0.892;2023-04-01T12:09:08;99905.09;;;10.91;75.86
62928;BME280;51070;52.236;-0.892;2023-04-01T12:11:45;99906.00;;;10.93;75.85
62928;BME280;51070;52.236;-0.892;2023-04-01T12:14:30;99912.08;;;10.95;75.59
62928;BME280;51070;52.236;-0.892;2023-04-01T12:20:00;99919.77;;;10.91;75.29
62928;BME280;51070;52.236;-0.892;2023-04-01T12:25:14;99921.80;;;10.97;75.37
62928;BME280;51070;52.236;-0.892;2023-04-01T12:36:10;99939.45;;;11.70;72.38
62928;BME280;51070;52.236;-0.892;2023-04-01T12:39:33;99940.23;;;11.74;71.59
62928;BME280;51070;52.236;-0.892;2023-04-01T12:50:52;99957.52;;;11.74;71.55
62928;BME280;51070;52.236;-0.892;2023-04-01T12:56:09;99958.86;;;11.72;71.08
62928;BME280;51070;52.236;-0.892;2023-04-01T12:59:07;99962.30;;;11.70;70.95
62928;BME280;51070;52.236;-0.892;2023-04-01T13:07:07;99976.52;;;11.62;70.89
62928;BME280;51070;52.236;-0.892;2023-04-01T13:09:40;99978.03;;;11.49;70.57
62928;BME280;51070;52.236;-0.892;2023-04-01T13:17:53;99989.48;;;11.02;71.72
62928;BME280;51070;52.236;-0.892;2023-04-01T13:20:47;99992.98;;;10.95;72.45
62928;BME280;51070;52.236;-0.892;2023-04-01T13:29:11;100004.06;;;10.78;72.93
62928;BME280;51070;52.236;-0.892;2023-04-01T13:32:05;100004.29;;;10.73;72.84
62928;BME280;51070;52.236;-0.892;2023-04-01T13:43:04;100027.41;;;10.46;74.26
62928;BME280;51070;52.236;-0.892;2023-04-01T13:54:44;100044.63;;;10.51;74.07
62928;BME280;51070;52.236;-0.892;2023-04-01T14:00:28;100048.41;;;10.50;73.30
62928;BME280;51070;52.236;-0.892;2023-04-01T14:03:28;100045.98;;;10.59;73.15
62928;BME280;51070;52.236;-0.892;2023-04-01T14:22:29;100064.42;;;10.97;70.73
62928;BME280;51070;52.236;-0.892;2023-04-01T14:39:18;100105.15;;;10.62;71.37
62928;BME280;51070;52.236;-0.892;2023-04-01T14:44:56;100113.84;;;10.64;71.35
62928;BME280;51070;52.236;-0.892;2023-04-01T14:50:20;100126.01;;;10.60;71.24
62928;BME280;51070;52.236;-0.892;2023-04-01T14:53:22;100132.59;;;10.53;71.38
62928;BME280;51070;52.236;-0.892;2023-04-01T14:55:53;100141.03;;;10.44;71.78
62928;BME280;51070;52.236;-0.892;2023-04-01T14:58:21;100145.40;;;10.39;71.68
62928;BME280;51070;52.236;-0.892;2023-04-01T15:00:48;100147.60;;;10.37;71.64
62928;BME280;51070;52.236;-0.892;2023-04-01T15:03:30;100148.91;;;10.41;71.74
62928;BME280;51070;52.236;-0.892;2023-04-01T15:09:14;100154.32;;;10.50;71.05
62928;BME280;51070;52.236;-0.892;2023-04-01T15:22:53;100164.77;;;10.84;69.56
62928;BME280;51070;52.236;-0.892;2023-04-01T15:25:39;100165.77;;;10.91;68.47
62928;BME280;51070;52.236;-0.892;2023-04-01T15:34:23;100177.99;;;11.13;67.11
62928;BME280;51070;52.236;-0.892;2023-04-01T15:44:53;100194.88;;;11.02;67.42
62928;BME280;51070;52.236;-0.892;2023-04-01T15:49:51;100204.63;;;10.97;66.57
62928;BME280;51070;52.236;-0.892;2023-04-01T15:52:48;100208.45;;;10.90;66.73
62928;BME280;51070;52.236;-0.892;2023-04-01T15:55:18;100214.23;;;10.86;66.84
62928;BME280;51070;52.236;-0.892;2023-04-01T16:09:47;100231.94;;;10.89;67.19
62928;BME280;51070;52.236;-0.892;2023-04-01T16:15:20;100238.08;;;10.93;67.24
62928;BME280;51070;52.236;-0.892;2023-04-01T16:21:01;100245.83;;;10.99;67.52
62928;BME280;51070;52.236;-0.892;2023-04-01T16:23:43;100245.18;;;11.01;66.90
62928;BME280;51070;52.236;-0.892;2023-04-01T16:31:32;100260.20;;;10.92;66.18
62928;BME280;51070;52.236;-0.892;2023-04-01T16:34:25;100265.51;;;10.90;66.27
62928;BME280;51070;52.236;-0.892;2023-04-01T16:37:09;100267.16;;;10.87;66.35
62928;BME280;51070;52.236;-0.892;2023-04-01T16:47:36;100282.28;;;10.70;66.93
62928;BME280;51070;52.236;-0.892;2023-04-01T16:50:23;100291.86;;;10.66;67.45
62928;BME280;51070;52.236;-0.892;2023-04-01T16:55:56;100304.55;;;10.69;67.80
62928;BME280;51070;52.236;-0.892;2023-04-01T16:58:26;100311.85;;;10.70;67.85
62928;BME280;51070;52.236;-0.892;2023-04-01T17:01:07;100317.08;;;10.72;67.49
62928;BME280;51070;52.236;-0.892;2023-04-01T17:03:41;100319.16;;;10.72;67.62
62928;BME280;51070;52.236;-0.892;2023-04-01T17:09:00;100321.25;;;10.66;67.74
62928;BME280;51070;52.236;-0.892;2023-04-01T17:11:37;100323.10;;;10.64;67.80
62928;BME280;51070;52.236;-0.892;2023-04-01T17:25:31;100353.27;;;10.41;68.13
62928;BME280;51070;52.236;-0.892;2023-04-01T17:28:29;100355.25;;;10.38;68.30
62928;BME280;51070;52.236;-0.892;2023-04-01T17:31:18;100359.45;;;10.34;68.65
62928;BME280;51070;52.236;-0.892;2023-04-01T17:42:20;100382.80;;;10.23;69.41
62928;BME280;51070;52.236;-0.892;2023-04-01T17:56:02;100419.37;;;10.11;70.12
62928;BME280;51070;52.236;-0.892;2023-04-01T18:01:21;100428.94;;;10.01;70.52
62928;BME280;51070;52.236;-0.892;2023-04-01T18:04:17;100429.65;;;9.96;70.77
62928;BME280;51070;52.236;-0.892;2023-04-01T18:20:34;100457.39;;;9.73;72.71
62928;BME280;51070;52.236;-0.892;2023-04-01T18:23:25;100462.29;;;9.69;73.08
62928;BME280;51070;52.236;-0.892;2023-04-01T18:26:01;100471.21;;;9.67;73.28
62928;BME280;51070;52.236;-0.892;2023-04-01T18:28:38;100478.27;;;9.67;73.68
62928;BME280;51070;52.236;-0.892;2023-04-01T18:31:18;100480.59;;;9.64;73.79
62928;BME280;51070;52.236;-0.892;2023-04-01T18:33:56;100490.11;;;9.59;74.13
62928;BME280;51070;52.236;-0.892;2023-04-01T18:39:23;100505.88;;;9.51;75.24
62928;BME280;51070;52.236;-0.892;2023-04-01T18:42:28;100514.39;;;9.47;76.01
62928;BME280;51070;52.236;-0.892;2023-04-01T18:45:19;100524.14;;;9.46;76.47
62928;BME280;51070;52.236;-0.892;2023-04-01T18:50:53;100531.63;;;9.42;77.45
62928;BME280;51070;52.236;-0.892;2023-04-01T18:56:34;100543.44;;;9.40;78.40
62928;BME280;51070;52.236;-0.892;2023-04-01T18:59:06;100548.84;;;9.37;78.91
62928;BME280;51070;52.236;-0.892;2023-04-01T19:01:42;100550.83;;;9.34;79.36
62928;BME280;51070;52.236;-0.892;2023-04-01T19:07:19;100557.52;;;9.33;80.21
62928;BME280;51070;52.236;-0.892;2023-04-01T19:09:49;100559.09;;;9.33;80.82
62928;BME280;51070;52.236;-0.892;2023-04-01T19:20:35;100580.66;;;9.29;82.25
62928;BME280;51070;52.236;-0.892;2023-04-01T19:25:58;100588.90;;;9.18;83.21
62928;BME280;51070;52.236;-0.892;2023-04-01T19:36:58;100616.68;;;9.14;85.14
62928;BME280;51070;52.236;-0.892;2023-04-01T19:39:34;100623.23;;;9.14;85.67
62928;BME280;51070;52.236;-0.892;2023-04-01T19:45:43;100632.75;;;9.06;87.94
62928;BME280;51070;52.236;-0.892;2023-04-01T19:48:18;100637.36;;;8.95;88.77
62928;BME280;51070;52.236;-0.892;2023-04-01T19:56:47;100656.20;;;8.73;90.10
62928;BME280;51070;52.236;-0.892;2023-04-01T19:59:32;100660.27;;;8.72;90.59
62928;BME280;51070;52.236;-0.892;2023-04-01T20:04:51;100665.55;;;8.66;91.04
62928;BME280;51070;52.236;-0.892;2023-04-01T20:07:27;100668.59;;;8.65;90.80
62928;BME280;51070;52.236;-0.892;2023-04-01T20:10:48;100674.57;;;8.63;91.01
62928;BME280;51070;52.236;-0.892;2023-04-01T20:15:37;100686.64;;;8.59;91.46
62928;BME280;51070;52.236;-0.892;2023-04-01T20:18:17;100692.69;;;8.56;91.80
62928;BME280;51070;52.236;-0.892;2023-04-01T20:20:57;100696.20;;;8.53;92.15
62928;BME280;51070;52.236;-0.892;2023-04-01T20:26:12;100710.14;;;8.52;92.44
62928;BME280;51070;52.236;-0.892;2023-04-01T20:29:22;100714.02;;;8.55;92.61
62928;BME280;51070;52.236;-0.892;2023-04-01T20:32:02;100722.73;;;8.57;92.51
62928;BME280;51070;52.236;-0.892;2023-04-01T20:34:39;100724.14;;;8.58;93.04
62928;BME280;51070;52.236;-0.892;2023-04-01T20:37:52;100728.02;;;8.56;92.85
62928;BME280;51070;52.236;-0.892;2023-04-01T20:40:39;100735.59;;;8.56;93.09
62928;BME280;51070;52.236;-0.892;2023-04-01T20:51:17;100755.30;;;8.45;93.01
62928;BME280;51070;52.236;-0.892;2023-04-01T21:02:41;100777.06;;;8.38;92.97
62928;BME280;51070;52.236;-0.892;2023-04-01T21:05:42;100782.63;;;8.35;93.31
62928;BME280;51070;52.236;-0.892;2023-04-01T21:11:08;100790.88;;;8.31;93.39
62928;BME280;51070;52.236;-0.892;2023-04-01T21:13:52;100797.80;;;8.32;93.57
62928;BME280;51070;52.236;-0.892;2023-04-01T21:16:53;100797.45;;;8.32;93.46
62928;BME280;51070;52.236;-0.892;2023-04-01T21:30:40;100813.45;;;8.20;94.82
62928;BME280;51070;52.236;-0.892;2023-04-01T21:38:56;100825.05;;;8.14;94.87
62928;BME280;51070;52.236;-0.892;2023-04-01T22:01:46;100863.53;;;8.04;92.96
62928;BME280;51070;52.236;-0.892;2023-04-01T22:04:30;100864.61;;;8.06;92.78
62928;BME280;51070;52.236;-0.892;2023-04-01T22:07:23;100870.27;;;8.05;92.53
62928;BME280;51070;52.236;-0.892;2023-04-01T22:10:41;100868.67;;;8.04;92.36
62928;BME280;51070;52.236;-0.892;2023-04-01T22:13:24;100873.90;;;8.01;92.45
62928;BME280;51070;52.236;-0.892;2023-04-01T22:16:16;100878.98;;;7.99;92.51
62928;BME280;51070;52.236;-0.892;2023-04-01T22:18:59;100887.00;;;7.98;92.69
62928;BME280;51070;52.236;-0.892;2023-04-01T22:24:33;100898.42;;;7.99;92.98
62928;BME280;51070;52.236;-0.892;2023-04-01T22:32:49;100921.15;;;7.96;93.41
62928;BME280;51070;52.236;-0.892;2023-04-01T22:46:19;100940.91;;;7.80;93.46
62928;BME280;51070;52.236;-0.892;2023-04-01T22:49:15;100944.66;;;7.80;93.13
62928;BME280;51070;52.236;-0.892;2023-04-01T22:51:45;100947.52;;;7.78;92.43
62928;BME280;51070;52.236;-0.892;2023-04-01T22:56:57;100954.70;;;7.77;91.99
62928;BME280;51070;52.236;-0.892;2023-04-01T23:02:31;100960.41;;;7.78;91.91
62928;BME280;51070;52.236;-0.892;2023-04-01T23:05:00;100963.79;;;7.77;91.99
62928;BME280;51070;52.236;-0.892;2023-04-01T23:10:39;100969.10;;;7.73;92.59
62928;BME280;51070;52.236;-0.892;2023-04-01T23:13:12;100970.95;;;7.72;92.82
62928;BME280;51070;52.236;-0.892;2023-04-01T23:15:40;100974.91;;;7.72;93.17
62928;BME280;51070;52.236;-0.892;2023-04-01T23:18:11;100978.70;;;7.72;93.40
62928;BME280;51070;52.236;-0.892;2023-04-01T23:23:23;100989.48;;;7.71;93.18